createdAt,value
2022-11-02T00:00:02.583Z,12.10
2022-11-02T00:02:29.284Z,12.10
2022-11-02T00:04:55.993Z,12.00
2022-11-02T00:07:22.658Z,12.10
2022-11-02T00:09:49.392Z,12.00
2022-11-02T00:12:16.021Z,12.10
2022-11-02T00:14:42.706Z,12.00
2022-11-02T00:17:09.414Z,12.00
2022-11-02T00:19:36.227Z,11.90
2022-11-02T00:22:03.109Z,11.90
2022-11-02T00:24:30.784Z,11.80
2022-11-02T00:26:57.424Z,11.80
2022-11-02T00:29:24.711Z,11.70
2022-11-02T00:31:51.328Z,11.70
2022-11-02T00:34:17.996Z,11.60
2022-11-02T00:36:44.762Z,11.60
2022-11-02T00:39:11.384Z,11.60
2022-11-02T00:41:38.350Z,11.50
2022-11-02T00:44:05.001Z,11.50
2022-11-02T00:46:31.675Z,11.50
2022-11-02T00:48:58.303Z,11.40
2022-11-02T00:51:24.944Z,11.40
2022-11-02T00:53:51.620Z,11.30
2022-11-02T00:56:18.335Z,11.20
2022-11-02T00:58:44.994Z,11.20
2022-11-02T01:01:11.699Z,11.20
2022-11-02T01:03:38.402Z,11.20
2022-11-02T01:06:10.354Z,11.10
2022-11-02T01:08:37.072Z,11.00
2022-11-02T01:11:30.131Z,11.00
2022-11-02T01:13:56.877Z,11.00
2022-11-02T01:16:23.584Z,11.00
2022-11-02T01:18:54.388Z,11.00
2022-11-02T01:21:21.323Z,11.00
2022-11-02T01:23:48.065Z,11.00
2022-11-02T01:26:15.002Z,11.00
2022-11-02T01:28:42.148Z,10.90
2022-11-02T01:31:09.365Z,10.90
2022-11-02T01:33:36.495Z,10.90
2022-11-02T01:36:04.767Z,11.00
2022-11-02T01:38:32.229Z,11.00
2022-11-02T01:40:59.358Z,11.00
2022-11-02T01:43:27.353Z,11.00
2022-11-02T01:46:00.183Z,11.00
2022-11-02T01:48:30.817Z,11.00
2022-11-02T01:50:59.294Z,11.00
2022-11-02T01:53:25.944Z,10.90
2022-11-02T01:55:52.654Z,10.80
2022-11-02T01:58:19.550Z,10.80
2022-11-02T02:00:46.364Z,10.70
2022-11-02T02:03:16.847Z,10.70
2022-11-02T02:06:00.967Z,10.70
2022-11-02T02:08:28.121Z,10.60
2022-11-02T02:10:58.740Z,10.60
2022-11-02T02:13:26.743Z,10.50
2022-11-02T02:15:59.470Z,10.50
2022-11-02T02:18:29.362Z,10.50
2022-11-02T02:20:59.025Z,10.50
2022-11-02T02:23:34.784Z,10.40
2022-11-02T02:26:20.192Z,10.40
2022-11-02T02:28:54.667Z,10.40
2022-11-02T02:31:27.505Z,10.40
2022-11-02T02:34:15.146Z,10.30
2022-11-02T02:36:51.544Z,10.20
2022-11-02T02:39:37.045Z,10.20
2022-11-02T02:42:21.261Z,10.10
2022-11-02T02:44:59.248Z,10.10
2022-11-02T02:47:28.884Z,10.10
2022-11-02T02:49:57.954Z,10.00
2022-11-02T02:52:26.999Z,10.00
2022-11-02T02:54:55.760Z,9.90
2022-11-02T02:57:23.861Z,9.90
2022-11-02T02:59:50.592Z,9.90
2022-11-02T03:02:20.448Z,9.90
2022-11-02T03:04:47.393Z,9.80
2022-11-02T03:07:18.473Z,9.70
2022-11-02T03:10:05.351Z,9.60
2022-11-02T03:12:50.340Z,9.60
2022-11-02T03:15:22.344Z,9.60
2022-11-02T03:18:05.598Z,9.50
2022-11-02T03:20:41.562Z,9.50
2022-11-02T03:23:17.344Z,9.60
2022-11-02T03:25:43.972Z,9.70
2022-11-02T03:28:10.590Z,9.60
2022-11-02T03:30:43.904Z,9.60
2022-11-02T03:33:13.683Z,9.50
2022-11-02T03:35:48.154Z,9.40
2022-11-02T03:38:19.530Z,9.40
2022-11-02T03:40:47.842Z,9.40
2022-11-02T03:43:15.006Z,9.50
2022-11-02T03:45:47.290Z,9.50
2022-11-02T03:48:14.970Z,9.50
2022-11-02T03:50:44.417Z,9.50
2022-11-02T03:53:13.707Z,9.50
2022-11-02T03:55:42.342Z,9.50
2022-11-02T03:58:12.415Z,9.50
2022-11-02T04:00:45.748Z,9.50
2022-11-02T04:03:12.982Z,9.40
2022-11-02T04:05:39.676Z,9.40
2022-11-02T04:08:22.181Z,9.50
2022-11-02T04:11:07.930Z,9.50
2022-11-02T04:13:53.512Z,9.50
2022-11-02T04:16:26.512Z,9.60
2022-11-02T04:19:13.405Z,9.60
2022-11-02T04:21:40.409Z,9.60
2022-11-02T04:24:26.038Z,9.60
2022-11-02T04:26:52.718Z,9.70
2022-11-02T04:29:19.438Z,9.80
2022-11-02T04:31:46.077Z,9.90
2022-11-02T04:34:12.700Z,10.00
2022-11-02T04:36:39.420Z,10.00
2022-11-02T04:39:06.119Z,10.00
2022-11-02T04:41:41.827Z,10.10
2022-11-02T04:44:12.122Z,10.10
2022-11-02T04:46:39.266Z,10.20
2022-11-02T04:49:06.665Z,10.20
2022-11-02T04:51:33.648Z,10.20
2022-11-02T04:54:00.362Z,10.20
2022-11-02T04:56:27.570Z,10.20
2022-11-02T04:58:55.311Z,10.20
2022-11-02T05:01:22.668Z,10.20
2022-11-02T05:03:50.140Z,10.30
2022-11-02T05:06:17.355Z,10.30
2022-11-02T05:08:44.035Z,10.30
2022-11-02T05:11:11.573Z,10.40
2022-11-02T05:13:39.012Z,10.40
2022-11-02T05:16:06.269Z,10.40
2022-11-02T05:18:33.205Z,10.50
2022-11-02T05:21:01.379Z,10.50
2022-11-02T05:23:28.537Z,10.60
2022-11-02T05:26:02.745Z,10.50
2022-11-02T05:28:30.213Z,10.60
2022-11-02T05:30:58.489Z,10.60
2022-11-02T05:33:30.271Z,10.60
2022-11-02T05:35:58.008Z,10.60
2022-11-02T05:38:25.257Z,10.70
2022-11-02T05:40:55.894Z,10.70
2022-11-02T05:43:22.774Z,10.70
2022-11-02T05:45:54.132Z,10.80
2022-11-02T05:48:21.172Z,10.80
2022-11-02T05:50:47.991Z,10.80
2022-11-02T05:53:14.906Z,10.80
2022-11-02T05:55:41.911Z,10.80
2022-11-02T05:58:08.621Z,10.80
2022-11-02T06:00:35.316Z,10.80
2022-11-02T06:03:02.216Z,10.80
2022-11-02T06:05:29.206Z,10.90
2022-11-02T06:07:59.728Z,10.90
2022-11-02T06:10:27.629Z,10.90
2022-11-02T06:12:55.256Z,10.90
2022-11-02T06:15:21.912Z,10.90
2022-11-02T06:17:48.503Z,10.90
2022-11-02T06:20:15.340Z,10.90
2022-11-02T06:22:42.220Z,11.00
2022-11-02T06:25:09.367Z,11.00
2022-11-02T06:27:36.183Z,11.00
2022-11-02T06:30:03.746Z,11.00
2022-11-02T06:32:30.393Z,11.00
2022-11-02T06:34:57.315Z,11.00
2022-11-02T06:37:24.146Z,11.10
2022-11-02T06:39:50.826Z,11.10
2022-11-02T06:42:17.543Z,11.10
2022-11-02T06:44:44.204Z,11.10
2022-11-02T06:47:10.813Z,11.10
2022-11-02T06:49:37.472Z,11.10
2022-11-02T06:52:04.155Z,11.10
2022-11-02T06:54:30.813Z,11.20
2022-11-02T06:56:57.469Z,11.20
2022-11-02T06:59:24.142Z,11.20
2022-11-02T07:01:54.239Z,11.30
2022-11-02T07:04:21.679Z,11.30
2022-11-02T07:06:48.336Z,11.30
2022-11-02T07:09:15.014Z,11.40
2022-11-02T07:11:41.659Z,11.50
2022-11-02T07:14:08.311Z,11.50
2022-11-02T07:16:34.978Z,11.50
2022-11-02T07:19:01.632Z,11.60
2022-11-02T07:21:28.469Z,11.70
2022-11-02T07:23:55.145Z,11.70
2022-11-02T07:26:21.842Z,11.70
2022-11-02T07:28:48.641Z,11.80
2022-11-02T07:31:15.318Z,11.80
2022-11-02T07:33:42.003Z,11.70
2022-11-02T07:36:08.814Z,11.80
2022-11-02T07:38:35.509Z,11.90
2022-11-02T07:41:02.290Z,11.90
2022-11-02T07:43:28.956Z,12.00
2022-11-02T07:45:56.223Z,11.90
2022-11-02T07:48:22.929Z,12.00
2022-11-02T07:50:49.733Z,12.00
2022-11-02T07:53:16.385Z,12.10
2022-11-02T07:55:43.011Z,12.20
2022-11-02T07:58:11.041Z,12.20
2022-11-02T08:00:38.922Z,12.20
2022-11-02T08:03:06.414Z,12.30
2022-11-02T08:05:34.179Z,12.30
2022-11-02T08:08:02.199Z,12.30
2022-11-02T08:10:33.912Z,12.40
2022-11-02T08:13:04.110Z,12.50
2022-11-02T08:15:30.770Z,12.60
2022-11-02T08:18:02.215Z,12.60
2022-11-02T08:20:29.280Z,12.80
2022-11-02T08:22:55.991Z,12.80
2022-11-02T08:25:22.719Z,12.80
2022-11-02T08:27:49.405Z,12.90
2022-11-02T08:30:16.123Z,12.90
2022-11-02T08:32:42.762Z,12.90
2022-11-02T08:35:09.545Z,12.90
2022-11-02T08:37:36.593Z,13.00
2022-11-02T08:40:03.345Z,13.10
2022-11-02T08:42:30.025Z,13.10
2022-11-02T08:44:56.684Z,13.20
2022-11-02T08:47:24.358Z,13.30
2022-11-02T08:49:51.830Z,13.30
2022-11-02T08:52:18.603Z,13.40
2022-11-02T08:54:45.272Z,13.40
2022-11-02T08:57:12.216Z,13.40
2022-11-02T08:59:39.017Z,13.40
2022-11-02T09:02:05.867Z,13.50
2022-11-02T09:04:32.660Z,13.50
2022-11-02T09:06:59.305Z,13.60
2022-11-02T09:09:25.924Z,13.70
2022-11-02T09:11:52.558Z,13.80
2022-11-02T09:14:19.252Z,13.90
2022-11-02T09:16:45.944Z,14.00
2022-11-02T09:19:12.596Z,14.00
2022-11-02T09:21:39.203Z,14.00
2022-11-02T09:24:05.985Z,14.00
2022-11-02T09:26:32.597Z,14.00
2022-11-02T09:28:59.234Z,14.10
2022-11-02T09:31:25.948Z,14.10
2022-11-02T09:33:52.680Z,14.00
2022-11-02T09:36:19.355Z,14.10
2022-11-02T09:38:46.064Z,14.10
2022-11-02T09:41:26.739Z,14.20
2022-11-02T09:44:02.065Z,14.20
2022-11-02T09:46:46.920Z,14.20
2022-11-02T09:49:18.155Z,14.20
2022-11-02T09:51:46.478Z,14.10
2022-11-02T09:54:25.296Z,14.10
2022-11-02T09:56:52.438Z,14.20
2022-11-02T09:59:20.715Z,14.40
2022-11-02T10:01:50.406Z,14.40
2022-11-02T10:04:20.192Z,14.40
2022-11-02T10:06:51.847Z,14.50
2022-11-02T10:09:25.423Z,14.60
2022-11-02T10:12:07.629Z,14.70
2022-11-02T10:14:36.011Z,14.80
2022-11-02T10:17:10.178Z,14.90
2022-11-02T10:19:39.646Z,15.00
2022-11-02T10:22:08.583Z,15.10
2022-11-02T10:24:43.425Z,15.20
2022-11-02T10:27:21.334Z,15.20
2022-11-02T10:30:11.549Z,15.30
2022-11-02T10:32:39.635Z,15.30
2022-11-02T10:35:31.583Z,15.40
2022-11-02T10:38:15.233Z,15.40
2022-11-02T10:40:51.987Z,15.50
2022-11-02T10:43:32.031Z,15.50
2022-11-02T10:46:07.707Z,15.60
2022-11-02T10:48:46.573Z,15.50
2022-11-02T10:51:14.425Z,15.60
2022-11-02T10:53:51.456Z,15.60
2022-11-02T10:56:18.208Z,15.60
2022-11-02T10:59:00.791Z,15.60
2022-11-02T11:01:28.361Z,15.70
2022-11-02T11:04:05.621Z,15.70
2022-11-02T11:06:32.241Z,15.70
2022-11-02T11:09:00.384Z,15.70
2022-11-02T11:11:29.227Z,15.70
2022-11-02T11:16:48.034Z,15.80
2022-11-02T11:22:25.194Z,15.90
2022-11-02T11:24:51.899Z,15.90
2022-11-02T11:27:19.801Z,16.00
2022-11-02T11:29:48.872Z,15.90
2022-11-02T11:32:22.760Z,15.80
2022-11-02T11:34:57.651Z,15.90
2022-11-02T11:37:25.395Z,15.90
2022-11-02T11:39:55.202Z,15.90
2022-11-02T11:42:23.714Z,16.00
2022-11-02T11:44:53.486Z,16.00
2022-11-02T11:47:24.983Z,16.10
2022-11-02T11:50:11.222Z,16.10
2022-11-02T11:52:38.703Z,16.10
2022-11-02T11:55:23.206Z,16.20
2022-11-02T11:58:06.783Z,16.20
2022-11-02T12:00:34.495Z,16.20
2022-11-02T12:03:06.773Z,16.20
2022-11-02T12:05:42.548Z,16.20
2022-11-02T12:08:21.302Z,16.20
2022-11-02T12:10:56.440Z,16.20
2022-11-02T12:13:29.276Z,16.10
2022-11-02T12:16:11.286Z,16.10
2022-11-02T12:18:47.334Z,16.10
2022-11-02T12:21:29.884Z,16.00
2022-11-02T12:23:56.539Z,16.00
2022-11-02T12:26:23.236Z,16.00
2022-11-02T12:29:13.218Z,16.00
2022-11-02T12:31:54.491Z,16.00
2022-11-02T12:34:23.612Z,16.10
2022-11-02T12:40:05.682Z,15.90
2022-11-02T12:42:36.797Z,15.90
2022-11-02T12:45:22.647Z,16.00
2022-11-02T12:48:02.641Z,16.00
2022-11-02T12:50:55.894Z,16.10
2022-11-02T12:53:28.565Z,16.10
2022-11-02T12:55:57.675Z,16.10
2022-11-02T12:58:27.364Z,16.10
2022-11-02T13:01:00.657Z,16.00
2022-11-02T13:03:34.959Z,16.00
2022-11-02T13:06:06.611Z,15.90
2022-11-02T13:08:36.176Z,15.90
2022-11-02T13:11:06.138Z,15.80
2022-11-02T13:13:43.990Z,15.80
2022-11-02T13:16:11.039Z,15.80
2022-11-02T13:18:48.616Z,15.70
2022-11-02T13:21:16.850Z,15.70
2022-11-02T13:23:45.633Z,15.70
2022-11-02T13:26:30.210Z,15.70
2022-11-02T13:29:26.410Z,15.70
2022-11-02T13:32:06.376Z,15.70
2022-11-02T13:34:35.873Z,15.70
2022-11-02T13:37:08.173Z,15.70
2022-11-02T13:39:45.667Z,15.70
2022-11-02T13:42:30.502Z,15.70
2022-11-02T13:45:00.157Z,15.70
2022-11-02T13:47:45.140Z,15.80
2022-11-02T13:50:12.933Z,15.80
2022-11-02T13:52:42.032Z,15.90
2022-11-02T13:55:09.691Z,15.90
2022-11-02T13:57:43.415Z,15.90
2022-11-02T14:00:22.283Z,15.90
2022-11-02T14:02:50.359Z,15.90
2022-11-02T14:05:26.050Z,15.80
2022-11-02T14:07:53.899Z,15.80
2022-11-02T14:10:20.568Z,15.70
2022-11-02T14:12:47.777Z,15.70
2022-11-02T14:15:14.486Z,15.60
2022-11-02T14:17:53.450Z,15.60
2022-11-02T14:20:40.062Z,15.50
2022-11-02T14:23:10.065Z,15.50
2022-11-02T14:25:47.010Z,15.70
2022-11-02T14:28:33.982Z,15.60
2022-11-02T14:31:07.000Z,15.60
2022-11-02T14:33:48.824Z,15.50
2022-11-02T14:36:19.549Z,15.50
2022-11-02T14:38:46.349Z,15.50
2022-11-02T14:41:18.792Z,15.40
2022-11-02T14:43:45.438Z,15.30
2022-11-02T14:46:22.218Z,15.30
2022-11-02T14:48:51.259Z,15.20
2022-11-02T14:51:23.205Z,15.20
2022-11-02T14:53:55.892Z,15.10
2022-11-02T14:56:22.958Z,15.00
2022-11-02T14:58:51.456Z,15.00
2022-11-02T15:01:18.653Z,14.90
2022-11-02T15:03:45.883Z,14.90
2022-11-02T15:06:15.490Z,14.80
2022-11-02T15:08:42.176Z,14.70
2022-11-02T15:11:27.670Z,14.70
2022-11-02T15:13:54.692Z,14.70
2022-11-02T15:16:23.849Z,14.70
2022-11-02T15:18:50.942Z,14.60
2022-11-02T15:21:17.814Z,14.50
2022-11-02T15:23:54.960Z,14.50
2022-11-02T15:26:31.101Z,14.50
2022-11-02T15:29:00.182Z,14.40
2022-11-02T15:31:27.666Z,14.40
2022-11-02T15:34:02.925Z,14.40
2022-11-02T15:36:36.672Z,14.40
2022-11-02T15:39:04.781Z,14.30
2022-11-02T15:41:44.806Z,14.30
2022-11-02T15:44:20.591Z,14.30
2022-11-02T15:47:06.087Z,14.20
2022-11-02T15:49:36.077Z,14.20
2022-11-02T15:52:08.585Z,14.10
2022-11-02T15:54:46.189Z,14.10
2022-11-02T15:57:13.087Z,14.10
2022-11-02T15:59:39.719Z,14.10
2022-11-02T16:02:06.435Z,14.10
2022-11-02T16:04:33.612Z,14.00
2022-11-02T16:07:04.710Z,14.00
2022-11-02T16:09:33.080Z,13.90
2022-11-02T16:12:02.557Z,13.80
2022-11-02T16:14:32.408Z,13.80
2022-11-02T16:16:59.158Z,13.80
2022-11-02T16:19:25.822Z,13.80
2022-11-02T16:21:54.978Z,13.70
2022-11-02T16:24:25.251Z,13.70
2022-11-02T16:26:52.119Z,13.60
2022-11-02T16:29:22.571Z,13.70
2022-11-02T16:31:49.558Z,13.60
2022-11-02T16:34:20.219Z,13.60
2022-11-02T16:36:47.640Z,13.60
2022-11-02T16:39:17.326Z,13.60
2022-11-02T16:41:51.424Z,13.60
2022-11-02T16:44:24.570Z,13.50
2022-11-02T16:47:13.842Z,13.50
2022-11-02T16:49:49.796Z,13.50
2022-11-02T16:52:16.436Z,13.60
2022-11-02T16:54:43.808Z,13.50
2022-11-02T16:57:11.906Z,13.50
2022-11-02T16:59:53.496Z,13.50
2022-11-02T17:02:25.037Z,13.50
2022-11-02T17:04:57.803Z,13.40
2022-11-02T17:07:35.706Z,13.40
2022-11-02T17:10:03.247Z,13.30
2022-11-02T17:12:34.698Z,13.30
2022-11-02T17:15:11.278Z,13.30
2022-11-02T17:17:39.690Z,13.30
2022-11-02T17:20:09.732Z,13.40
2022-11-02T17:22:37.236Z,13.30
2022-11-02T17:25:10.671Z,13.30
2022-11-02T17:27:41.030Z,13.30
2022-11-02T17:30:28.320Z,13.20
2022-11-02T17:32:55.526Z,13.20
2022-11-02T17:35:27.051Z,13.20
2022-11-02T17:37:54.547Z,13.20
2022-11-02T17:40:22.036Z,13.20
2022-11-02T17:43:01.026Z,13.20
2022-11-02T17:45:29.028Z,13.20
2022-11-02T17:47:56.381Z,13.20
2022-11-02T17:50:23.760Z,13.10
2022-11-02T17:52:50.834Z,13.10
2022-11-02T17:55:21.879Z,13.10
2022-11-02T17:57:48.767Z,13.10
2022-11-02T18:00:19.592Z,13.10
2022-11-02T18:02:51.007Z,13.00
2022-11-02T18:05:21.157Z,13.00
2022-11-02T18:07:47.959Z,13.10
2022-11-02T18:10:14.728Z,13.00
2022-11-02T18:12:41.673Z,13.00
2022-11-02T18:15:12.858Z,13.00
2022-11-02T18:17:39.615Z,13.00
2022-11-02T18:20:06.539Z,13.00
2022-11-02T18:22:33.144Z,13.00
2022-11-02T18:24:59.781Z,13.00
2022-11-02T18:27:28.700Z,13.00
2022-11-02T18:29:55.620Z,12.90
2022-11-02T18:32:23.768Z,12.90
2022-11-02T18:34:50.430Z,12.90
2022-11-02T18:37:17.084Z,12.90
2022-11-02T18:39:43.725Z,12.80
2022-11-02T18:42:10.469Z,12.80
2022-11-02T18:44:37.067Z,12.80
2022-11-02T18:47:04.607Z,12.70
2022-11-02T18:49:31.224Z,12.70
2022-11-02T18:51:58.067Z,12.70
2022-11-02T18:54:25.060Z,12.70
2022-11-02T18:56:51.760Z,12.70
2022-11-02T18:59:18.434Z,12.80
2022-11-02T19:01:45.230Z,12.80
2022-11-02T19:04:17.124Z,12.80
2022-11-02T19:07:02.882Z,12.70
2022-11-02T19:09:31.654Z,12.60
2022-11-02T19:12:01.516Z,12.60
2022-11-02T19:14:47.495Z,12.60
2022-11-02T19:17:14.815Z,12.60
2022-11-02T19:19:43.147Z,12.60
2022-11-02T19:22:12.217Z,12.60
2022-11-02T19:24:39.017Z,12.60
2022-11-02T19:27:11.464Z,12.60
2022-11-02T19:29:38.172Z,12.60
2022-11-02T19:32:04.848Z,12.60
2022-11-02T19:34:31.593Z,12.60
2022-11-02T19:36:58.667Z,12.50
2022-11-02T19:39:25.423Z,12.50
2022-11-02T19:41:54.167Z,12.40
2022-11-02T19:44:21.406Z,12.30
2022-11-02T19:46:48.132Z,12.30
2022-11-02T19:49:14.831Z,12.20
2022-11-02T19:51:41.556Z,12.20
2022-11-02T19:54:08.399Z,12.10
2022-11-02T19:56:35.830Z,12.00
2022-11-02T19:59:03.014Z,11.90
2022-11-02T20:01:31.259Z,11.80
2022-11-02T20:03:58.187Z,11.80
2022-11-02T20:06:31.267Z,11.70
2022-11-02T20:08:58.388Z,11.60
2022-11-02T20:11:27.706Z,11.60
2022-11-02T20:13:55.792Z,11.50
2022-11-02T20:16:22.578Z,11.50
2022-11-02T20:18:49.776Z,11.40
2022-11-02T20:21:18.241Z,11.40
2022-11-02T20:23:45.775Z,11.30
2022-11-02T20:26:16.986Z,11.30
2022-11-02T20:28:45.357Z,11.10
2022-11-02T20:31:13.525Z,11.00
2022-11-02T20:33:40.668Z,11.00
2022-11-02T20:36:07.923Z,11.00
2022-11-02T20:38:34.826Z,10.80
2022-11-02T20:41:05.169Z,10.80
2022-11-02T20:43:32.138Z,10.70
2022-11-02T20:46:31.463Z,10.60
2022-11-02T20:48:53.191Z,10.60
2022-11-02T20:51:21.139Z,10.60
2022-11-02T20:53:51.055Z,10.50
2022-11-02T20:56:18.197Z,10.50
2022-11-02T20:58:55.560Z,10.50
2022-11-02T21:01:22.785Z,10.50
2022-11-02T21:03:49.564Z,10.50
2022-11-02T21:06:16.200Z,10.40
2022-11-02T21:08:43.584Z,10.40
2022-11-02T21:11:29.531Z,10.30
2022-11-02T21:13:56.477Z,10.20
2022-11-02T21:16:23.107Z,10.20
2022-11-02T21:18:49.897Z,10.10
2022-11-02T21:21:17.908Z,10.10
2022-11-02T21:23:45.337Z,10.00
2022-11-02T21:26:13.167Z,9.90
2022-11-02T21:28:42.078Z,9.90
2022-11-02T21:31:10.889Z,9.90
2022-11-02T21:33:38.207Z,9.90
2022-11-02T21:36:05.662Z,9.80
2022-11-02T21:38:32.337Z,9.80
2022-11-02T21:41:00.214Z,9.70
2022-11-02T21:43:27.606Z,9.70
2022-11-02T21:45:55.159Z,9.70
2022-11-02T21:48:22.725Z,9.60
2022-11-02T21:51:03.287Z,9.60
2022-11-02T21:53:30.733Z,9.60
2022-11-02T21:56:05.309Z,9.50
2022-11-02T21:58:31.962Z,9.50
2022-11-02T22:01:24.483Z,9.40
2022-11-02T22:03:52.229Z,9.30
2022-11-02T22:06:20.693Z,9.30
2022-11-02T22:08:47.500Z,9.20
2022-11-02T22:11:24.751Z,9.10
2022-11-02T22:13:52.127Z,9.20
2022-11-02T22:16:20.597Z,9.20
2022-11-02T22:18:48.533Z,9.20
2022-11-02T22:21:15.982Z,9.20
2022-11-02T22:23:44.061Z,9.20
2022-11-02T22:26:11.694Z,9.20
2022-11-02T22:28:39.460Z,9.20
2022-11-02T22:31:06.905Z,9.10
2022-11-02T22:33:33.969Z,9.10
2022-11-02T22:36:03.045Z,9.10
2022-11-02T22:38:48.402Z,9.00
2022-11-02T22:41:16.090Z,9.00
2022-11-02T22:43:42.916Z,9.00
2022-11-02T22:46:10.388Z,9.00
2022-11-02T22:48:37.115Z,8.90
2022-11-02T22:51:05.975Z,9.00
2022-11-02T22:53:33.311Z,8.90
2022-11-02T22:56:01.112Z,8.90
2022-11-02T22:58:28.601Z,8.80
2022-11-02T23:00:55.385Z,8.80
2022-11-02T23:03:22.666Z,8.80
2022-11-02T23:05:49.471Z,8.70
2022-11-02T23:08:16.181Z,8.60
2022-11-02T23:11:01.913Z,8.70
2022-11-02T23:13:28.905Z,8.70
2022-11-02T23:16:21.170Z,8.70
2022-11-02T23:19:14.176Z,8.60
2022-11-02T23:21:42.379Z,8.50
2022-11-02T23:24:27.755Z,8.30
2022-11-02T23:26:54.447Z,8.30
2022-11-02T23:29:39.788Z,8.30
2022-11-02T23:32:25.140Z,8.30
2022-11-02T23:35:10.182Z,8.30
2022-11-02T23:37:36.905Z,8.20
2022-11-02T23:40:03.876Z,8.20
2022-11-02T23:42:30.559Z,8.20
2022-11-02T23:44:57.351Z,8.20
2022-11-02T23:47:43.937Z,8.10
2022-11-02T23:50:10.774Z,8.10
2022-11-02T23:52:56.238Z,8.10
2022-11-02T23:55:41.882Z,8.00
2022-11-02T23:58:08.593Z,8.00
